РПИ Минск

Руководитель РПИ

Roman Savel*

Инструкторы РПИ
Denis Kashin (Instructor)
Maxim Gerasimov (Instructor)
Roman Savel (Instructor)
Входит в состав
ЗЦ Беларусь

Диспетчеры РПИ

Диспетчер Рейтинг Допуски *
Andrei Valasevich Controller UMMV_CTR
Denis Kashin Instructor UMMV_CTR
Maxim Gerasimov Instructor UMMV_CTR
Roman Savel Instructor UMMV_CTR
Akmal Choriev Student UMMS_GND
Alexander Nazarenko Student UMMS_GND
Alexey Verbitsky Student UMMS_GND
Anna Piliushko Student 2 UMMS_APP*
Arseny Krutikov Student 2 UMMS_1_TWR*, UMMS_2_TWR*
Artyom Somok Student UMMS_GND
Danila Yarov Senior Student UMMS_APP
Dmitriy Kuzmin Senior Student UMMS_APP*
Ignat Morozov Student 2 UMMS_GND
Iosif Karpov Student 2 UMMS_R_APP*
Ivan Davidovich Student UMMS_GND
Maxim Ivantsov Student 2 UMMS_R_APP*
Michael Kostelcev Student 2 UMMS_APP*
Pavel Yashin Student 2 UMMS_APP*
Vsevolod Shyshko Student UMMS_2_TWR*, UMMS_1_TWR*

Аэропорты РПИ

ICAO Город Название Погода
UMMS Минск Минск UMMS 020100Z 30001MPS CAVOK 13/12 Q1020 NOSIG
UMBB Брест Брест
UMII Витебск Восточный UMII 020100Z 10003MPS CAVOK 18/14 Q1021 NOSIG
UMGG Гомель Гомель UMGG 020100Z 11003MPS 8000 NSC 17/14 Q1021 NOSIG
UMMG Гродно Гродно UMMG 020100Z 09001MPS CAVOK 19/15 Q1017 NOSIG
UMOO Могилёв Могилёв